createdAt,value
2022-10-31T00:01:57.152Z,72.86
2022-10-31T00:04:26.213Z,72.47
2022-10-31T00:38:13.511Z,71.74
2022-10-31T00:40:40.034Z,71.86
2022-10-31T00:43:06.609Z,71.60
2022-10-31T00:45:33.236Z,71.67
2022-10-31T00:48:00.041Z,71.62
2022-10-31T00:50:46.132Z,71.72
2022-10-31T00:53:12.735Z,71.77
2022-10-31T00:55:39.269Z,71.32
2022-10-31T00:58:05.983Z,71.10
2022-10-31T01:00:32.689Z,71.50
2022-10-31T01:03:01.179Z,71.64
2022-10-31T01:05:27.979Z,71.62
2022-10-31T01:07:54.569Z,71.58
2022-10-31T01:10:21.119Z,72.00
2022-10-31T01:12:49.405Z,72.50
2022-10-31T01:15:20.996Z,71.79
2022-10-31T01:17:48.351Z,71.61
2022-10-31T01:20:16.205Z,71.73
2022-10-31T01:22:42.892Z,71.50
2022-10-31T01:25:10.454Z,71.89
2022-10-31T01:27:37.030Z,71.86
2022-10-31T01:30:04.557Z,71.76
2022-10-31T01:32:31.130Z,71.42
2022-10-31T01:34:57.714Z,71.44
2022-10-31T01:37:24.322Z,71.23
2022-10-31T01:39:50.853Z,71.66
2022-10-31T01:42:20.829Z,71.29
2022-10-31T01:44:57.877Z,71.26
2022-10-31T01:47:46.760Z,71.27
2022-10-31T01:50:37.122Z,71.34
2022-10-31T01:53:08.696Z,71.28
2022-10-31T01:55:39.600Z,71.16
2022-10-31T01:58:10.546Z,71.24
2022-10-31T02:00:37.789Z,71.14
2022-10-31T02:03:04.647Z,71.08
2022-10-31T02:05:33.673Z,71.02
2022-10-31T02:08:16.955Z,71.12
2022-10-31T02:10:44.727Z,71.14
2022-10-31T02:13:13.928Z,70.72
2022-10-31T02:15:41.678Z,70.46
2022-10-31T02:18:09.191Z,70.77
2022-10-31T02:21:08.045Z,70.86
2022-10-31T02:23:58.847Z,71.34
2022-10-31T02:26:46.651Z,71.17
2022-10-31T02:29:38.969Z,71.18
2022-10-31T02:32:42.787Z,71.29
2022-10-31T02:35:27.698Z,71.28
2022-10-31T02:38:19.160Z,71.36
2022-10-31T02:40:45.684Z,71.48
2022-10-31T02:43:21.449Z,71.58
2022-10-31T02:46:04.817Z,72.29
2022-10-31T02:48:36.208Z,72.01
2022-10-31T02:51:05.274Z,72.35
2022-10-31T02:53:35.941Z,71.93
2022-10-31T02:56:16.431Z,72.11
2022-10-31T02:58:58.542Z,72.31
2022-10-31T03:01:34.446Z,71.92
2022-10-31T03:04:13.424Z,71.59
2022-10-31T03:07:01.399Z,71.34
2022-10-31T03:09:45.680Z,71.84
2022-10-31T03:12:20.550Z,72.10
2022-10-31T03:15:06.698Z,73.08
2022-10-31T03:17:38.447Z,73.21
2022-10-31T03:20:09.970Z,73.05
2022-10-31T03:22:38.778Z,73.42
2022-10-31T03:25:06.130Z,73.24
2022-10-31T03:27:36.756Z,73.33
2022-10-31T03:30:08.923Z,73.27
2022-10-31T03:32:55.166Z,73.86
2022-10-31T03:35:25.339Z,73.59
2022-10-31T03:37:53.906Z,73.97
2022-10-31T03:40:22.881Z,73.56
2022-10-31T03:43:04.683Z,74.20
2022-10-31T03:45:32.098Z,74.60
2022-10-31T03:48:02.631Z,75.35
2022-10-31T03:50:39.426Z,74.77
2022-10-31T03:53:23.825Z,74.46
2022-10-31T03:56:01.602Z,74.37
2022-10-31T03:58:44.447Z,74.49
2022-10-31T04:01:15.506Z,74.06
2022-10-31T04:03:43.602Z,73.80
2022-10-31T04:06:14.716Z,73.65
2022-10-31T04:08:55.699Z,73.33
2022-10-31T04:11:26.909Z,73.14
2022-10-31T04:13:55.400Z,72.82
2022-10-31T04:16:24.256Z,72.98
2022-10-31T04:18:50.920Z,73.72
2022-10-31T04:21:17.835Z,73.45
2022-10-31T04:23:44.463Z,74.10
2022-10-31T04:26:13.974Z,74.71
2022-10-31T04:28:40.575Z,74.70
2022-10-31T04:31:07.143Z,75.02
2022-10-31T04:33:33.695Z,74.42
2022-10-31T04:36:00.227Z,75.46
2022-10-31T04:38:26.829Z,76.50
2022-10-31T04:40:53.471Z,76.08
2022-10-31T04:45:54.563Z,74.60
2022-10-31T04:48:21.138Z,74.59
2022-10-31T04:50:47.908Z,74.27
2022-10-31T04:53:14.481Z,74.07
2022-10-31T04:55:41.023Z,74.37
2022-10-31T04:58:07.647Z,74.64
2022-10-31T05:00:34.399Z,74.34
2022-10-31T05:03:01.248Z,73.95
2022-10-31T05:05:30.526Z,74.71
2022-10-31T05:07:57.301Z,75.47
2022-10-31T05:10:26.987Z,74.26
2022-10-31T05:12:56.058Z,74.43
2022-10-31T05:15:24.227Z,75.56
2022-10-31T05:17:51.662Z,76.81
2022-10-31T05:20:20.555Z,76.95
2022-10-31T05:22:50.248Z,76.82
2022-10-31T05:25:18.171Z,77.76
2022-10-31T05:27:47.341Z,76.74
2022-10-31T05:30:16.758Z,75.50
2022-10-31T05:32:45.665Z,75.94
2022-10-31T05:35:17.543Z,75.87
2022-10-31T05:37:44.403Z,74.86
2022-10-31T05:40:13.560Z,75.23
2022-10-31T05:42:41.384Z,74.66
2022-10-31T05:45:13.680Z,76.08
2022-10-31T05:47:40.318Z,75.12
2022-10-31T05:50:08.293Z,76.37
2022-10-31T05:52:35.147Z,77.14
2022-10-31T05:55:01.806Z,74.72
2022-10-31T05:57:30.441Z,75.50
2022-10-31T05:59:56.972Z,75.17
2022-10-31T06:02:23.562Z,74.50
2022-10-31T06:04:50.220Z,74.18
2022-10-31T06:07:16.853Z,74.81
2022-10-31T06:09:43.445Z,74.46
2022-10-31T06:12:09.970Z,75.28
2022-10-31T06:14:36.499Z,74.24
2022-10-31T06:17:03.047Z,74.62
2022-10-31T06:19:29.595Z,75.20
2022-10-31T06:21:57.231Z,74.47
2022-10-31T06:24:23.790Z,75.93
2022-10-31T06:26:50.329Z,74.75
2022-10-31T06:37:53.492Z,73.99
2022-10-31T12:41:24.898Z,72.63
2022-10-31T12:44:01.248Z,71.88
2022-10-31T12:49:18.022Z,71.87
2022-10-31T12:52:10.429Z,72.03
2022-10-31T12:57:39.090Z,72.15
2022-10-31T13:00:15.067Z,73.58
2022-10-31T13:05:26.041Z,73.98
2022-10-31T13:10:53.446Z,72.00
2022-10-31T13:13:34.009Z,73.07
2022-10-31T13:16:06.174Z,72.86
2022-10-31T13:18:48.871Z,72.98
2022-10-31T13:21:26.387Z,72.82
2022-10-31T13:23:53.379Z,74.04
2022-10-31T13:26:35.595Z,74.58
2022-10-31T13:29:06.283Z,74.21
2022-10-31T13:31:33.896Z,74.33
2022-10-31T13:34:10.030Z,73.75
2022-10-31T13:36:47.053Z,72.99
2022-10-31T13:39:38.486Z,74.17
2022-10-31T13:42:12.034Z,74.33
2022-10-31T13:44:39.357Z,75.55
2022-10-31T13:47:50.284Z,75.53
2022-10-31T13:50:24.561Z,74.51
2022-10-31T13:53:13.186Z,75.75
2022-10-31T13:55:46.850Z,75.33
2022-10-31T13:58:28.011Z,73.84
2022-10-31T14:01:05.052Z,73.20
2022-10-31T14:04:02.062Z,72.46
2022-10-31T14:06:20.742Z,72.58
2022-10-31T14:08:52.947Z,74.14
2022-10-31T14:11:33.023Z,73.84
2022-10-31T14:14:03.070Z,74.18
2022-10-31T14:16:33.373Z,74.98
2022-10-31T14:19:07.218Z,73.95
2022-10-31T14:21:43.277Z,75.61
2022-10-31T14:26:55.630Z,73.86
2022-10-31T14:29:31.427Z,73.36
2022-10-31T14:32:27.885Z,72.54
2022-10-31T14:34:59.017Z,73.65
2022-10-31T14:37:36.535Z,74.45
2022-10-31T14:40:43.350Z,73.90
2022-10-31T14:43:39.617Z,74.38
2022-10-31T14:46:31.453Z,74.11
2022-10-31T14:49:27.225Z,74.62
2022-10-31T14:51:53.986Z,73.10
2022-10-31T14:54:29.247Z,73.50
2022-10-31T14:57:01.221Z,74.47
2022-10-31T14:59:33.965Z,73.56
2022-10-31T15:02:25.470Z,73.13
2022-10-31T15:04:53.501Z,73.00
2022-10-31T15:07:26.765Z,74.49
2022-10-31T15:10:01.579Z,76.03
2022-10-31T15:12:30.822Z,74.23
2022-10-31T15:14:59.370Z,73.87
2022-10-31T15:17:27.054Z,73.54
2022-10-31T15:19:54.323Z,73.03
2022-10-31T15:22:24.411Z,73.18
2022-10-31T15:24:57.364Z,73.33
2022-10-31T15:27:25.762Z,72.66
2022-10-31T15:29:56.872Z,74.06
2022-10-31T15:32:27.002Z,73.78
2022-10-31T15:34:55.253Z,73.11
2022-10-31T15:37:25.317Z,72.96
2022-10-31T15:39:52.472Z,73.42
2022-10-31T15:42:30.202Z,73.48
2022-10-31T15:45:06.982Z,74.92
2022-10-31T15:47:34.491Z,73.93
2022-10-31T15:50:02.572Z,73.79
2022-10-31T15:52:47.043Z,73.44
2022-10-31T15:55:30.418Z,73.18
2022-10-31T15:58:01.498Z,73.01
2022-10-31T16:00:29.848Z,72.95
2022-10-31T16:03:14.731Z,73.12
2022-10-31T16:05:53.212Z,72.82
2022-10-31T16:08:31.946Z,72.80
2022-10-31T16:10:58.465Z,73.33
2022-10-31T16:13:29.541Z,73.29
2022-10-31T16:16:28.921Z,72.99
2022-10-31T16:18:50.730Z,72.70
2022-10-31T16:21:30.894Z,72.87
2022-10-31T16:24:06.166Z,72.65
2022-10-31T16:26:33.855Z,72.62
2022-10-31T16:29:05.561Z,73.00
2022-10-31T16:31:41.240Z,73.87
2022-10-31T16:34:22.348Z,75.91
2022-10-31T16:36:52.199Z,74.80
2022-10-31T16:39:20.223Z,73.85
2022-10-31T16:41:54.342Z,74.60
2022-10-31T16:44:27.989Z,73.23
2022-10-31T16:47:17.296Z,74.07
2022-10-31T16:49:47.142Z,75.99
2022-10-31T16:52:13.889Z,76.21
2022-10-31T16:54:41.423Z,75.22
2022-10-31T16:57:28.793Z,77.11
2022-10-31T16:59:58.846Z,75.15
2022-10-31T17:02:30.922Z,75.02
2022-10-31T17:07:35.303Z,77.22
2022-10-31T17:10:01.887Z,81.63
2022-10-31T17:12:28.801Z,77.81
2022-10-31T17:14:55.463Z,76.35
2022-10-31T17:17:22.071Z,76.19
2022-10-31T17:19:48.817Z,76.00
2022-10-31T17:22:15.686Z,75.02
2022-10-31T17:24:42.391Z,76.79
2022-10-31T17:27:09.088Z,77.14
2022-10-31T17:29:36.219Z,76.86
2022-10-31T17:32:04.254Z,77.11
2022-10-31T17:37:07.673Z,78.21
2022-10-31T17:39:38.752Z,80.41
2022-10-31T17:42:05.452Z,81.66
2022-10-31T17:44:38.910Z,80.04
2022-10-31T17:47:06.293Z,77.90
2022-10-31T17:49:32.851Z,77.69
2022-10-31T17:51:59.456Z,76.78
2022-10-31T17:57:16.078Z,76.26
2022-10-31T17:59:43.328Z,75.84
2022-10-31T18:02:11.502Z,77.65
2022-10-31T18:04:40.548Z,76.87
2022-10-31T18:07:07.956Z,76.77
2022-10-31T18:09:34.622Z,76.94
2022-10-31T18:12:01.303Z,77.51
2022-10-31T18:14:29.450Z,79.56
2022-10-31T18:16:55.983Z,79.39
2022-10-31T18:19:22.612Z,77.97
2022-10-31T18:21:49.291Z,77.87
2022-10-31T18:24:15.848Z,77.99
2022-10-31T18:26:42.407Z,78.27
2022-10-31T18:29:11.394Z,77.38
2022-10-31T18:31:38.124Z,77.89
2022-10-31T18:36:39.971Z,76.16
2022-10-31T18:39:07.024Z,76.60
2022-10-31T18:41:33.954Z,77.21
2022-10-31T18:44:00.504Z,77.55
2022-10-31T18:49:09.395Z,78.30
2022-10-31T18:51:35.954Z,79.32
2022-10-31T18:54:02.776Z,76.90
2022-10-31T18:56:31.767Z,76.75
2022-10-31T18:59:04.432Z,76.97
2022-10-31T19:01:31.578Z,77.99
2022-10-31T19:03:59.962Z,76.87
2022-10-31T19:06:50.546Z,76.39
2022-10-31T19:09:17.193Z,76.74
2022-10-31T19:11:43.922Z,77.71
2022-10-31T19:14:13.314Z,78.48
2022-10-31T19:16:39.930Z,78.08
2022-10-31T19:19:09.766Z,80.31
2022-10-31T19:21:56.763Z,79.63
2022-10-31T19:24:23.415Z,78.82
2022-10-31T19:26:49.962Z,78.04
2022-10-31T19:29:16.604Z,77.87
2022-10-31T19:31:43.111Z,78.12
2022-10-31T19:34:11.940Z,77.19
2022-10-31T19:36:38.465Z,77.28
2022-10-31T19:39:05.108Z,80.76
2022-10-31T19:41:31.692Z,80.68
2022-10-31T19:44:01.438Z,78.50
2022-10-31T19:46:53.663Z,77.20
2022-10-31T19:49:20.472Z,76.82
2022-10-31T19:51:47.121Z,76.88
2022-10-31T19:54:14.011Z,78.89
2022-10-31T19:56:40.642Z,77.96
2022-10-31T19:59:08.092Z,77.95
2022-10-31T20:01:35.020Z,78.98
2022-10-31T20:04:01.819Z,77.56
2022-10-31T20:06:34.043Z,77.87
2022-10-31T20:09:08.151Z,79.40
2022-10-31T20:11:36.808Z,81.15
2022-10-31T20:14:04.382Z,79.68
2022-10-31T20:16:31.125Z,78.77
2022-10-31T20:18:59.634Z,78.79
2022-10-31T20:21:29.429Z,78.63
2022-10-31T20:24:01.135Z,78.92
2022-10-31T20:26:29.391Z,77.24
2022-10-31T20:28:57.279Z,77.46
2022-10-31T20:31:27.465Z,77.51
2022-10-31T20:33:55.758Z,79.81
2022-10-31T20:36:23.169Z,80.39
2022-10-31T20:38:51.273Z,78.21
2022-10-31T20:41:18.414Z,81.95
2022-10-31T20:43:45.278Z,83.11
2022-10-31T20:46:13.272Z,80.10
2022-10-31T20:48:40.553Z,81.34
2022-10-31T20:51:11.553Z,79.99
2022-10-31T20:53:38.430Z,80.12
2022-10-31T20:56:10.405Z,81.67
2022-10-31T20:58:38.372Z,81.77
2022-10-31T21:01:10.639Z,80.59
2022-10-31T21:03:37.303Z,79.71
2022-10-31T21:06:04.767Z,78.20
2022-10-31T21:08:33.038Z,79.66
2022-10-31T21:11:00.386Z,78.61
2022-10-31T21:13:31.863Z,80.58
2022-10-31T21:16:03.460Z,80.57
2022-10-31T21:18:30.167Z,80.24
2022-10-31T21:20:56.909Z,80.62
2022-10-31T21:23:23.910Z,79.30
2022-10-31T21:25:50.564Z,79.73
2022-10-31T21:28:18.932Z,78.32
2022-10-31T21:30:51.610Z,78.17
2022-10-31T21:33:21.304Z,79.34
2022-10-31T21:35:51.692Z,80.27
2022-10-31T21:38:18.738Z,80.53
2022-10-31T21:40:45.391Z,79.77
2022-10-31T21:43:14.307Z,82.15
2022-10-31T21:45:40.919Z,81.54
2022-10-31T21:48:07.455Z,80.25
2022-10-31T21:50:34.846Z,80.17
2022-10-31T21:53:22.784Z,79.34
2022-10-31T21:55:49.307Z,78.70
2022-10-31T21:58:15.892Z,77.88
2022-10-31T22:00:42.513Z,77.87
2022-10-31T22:03:09.146Z,77.69
2022-10-31T22:05:37.100Z,78.32
2022-10-31T22:08:06.582Z,79.77
2022-10-31T22:10:36.507Z,79.97
2022-10-31T22:13:04.160Z,79.02
2022-10-31T22:15:31.536Z,78.47
2022-10-31T22:17:58.073Z,78.08
2022-10-31T22:20:26.201Z,78.17
2022-10-31T22:22:55.031Z,77.75
2022-10-31T22:25:21.578Z,77.79
2022-10-31T22:27:48.097Z,78.41
2022-10-31T22:30:14.753Z,77.88
2022-10-31T22:32:41.307Z,77.40
2022-10-31T22:35:08.196Z,78.30
2022-10-31T22:37:36.068Z,77.83
2022-10-31T22:40:03.524Z,76.96
2022-10-31T22:42:35.463Z,77.73
2022-10-31T22:45:03.810Z,77.70
2022-10-31T22:47:30.385Z,77.98
2022-10-31T22:49:56.945Z,77.83
2022-10-31T22:52:23.579Z,78.09
2022-10-31T22:54:50.167Z,76.73
2022-10-31T22:57:16.747Z,76.78
2022-10-31T22:59:43.306Z,77.15
2022-10-31T23:02:12.523Z,77.08
2022-10-31T23:04:39.365Z,77.67
2022-10-31T23:07:05.930Z,78.38
2022-10-31T23:09:32.772Z,79.19
2022-10-31T23:12:21.983Z,78.17
2022-10-31T23:14:48.536Z,78.41
2022-10-31T23:17:17.745Z,78.84
2022-10-31T23:19:45.773Z,79.12
2022-10-31T23:22:12.614Z,78.53
2022-10-31T23:24:41.629Z,78.77
2022-10-31T23:27:21.924Z,77.07
2022-10-31T23:29:56.935Z,77.68
2022-10-31T23:32:32.766Z,76.61
2022-10-31T23:35:01.902Z,76.33
2022-10-31T23:37:30.886Z,77.91
2022-10-31T23:39:57.983Z,77.78
2022-10-31T23:42:25.549Z,76.91
2022-10-31T23:44:52.205Z,77.87
2022-10-31T23:47:19.709Z,76.83
2022-10-31T23:49:49.222Z,77.27
2022-10-31T23:52:16.358Z,77.19
2022-10-31T23:54:43.208Z,76.96
2022-10-31T23:57:14.569Z,77.42
2022-10-31T23:59:53.298Z,77.24
